Time;durP1;ratioP1;P1;durP2;ratioP2;P2;SDS_P1;SDS_P2;PMS_P1;PMS_P2;Temp;Humidity;BMP_temperature;BMP_pressure;BME280_temperature;BME280_humidity;BME280_pressure;Samples;Min_cycle;Max_cycle;Signal;HPM_P1;HPM_P2
2022/10/02 00:01:50;;;;;;;16.50;7.78;;;;;;;12.58;100.00;101369.16;5072627;28;20020;-67
2022/10/02 00:04:22;;;;;;;19.45;8.77;;;;;;;12.57;100.00;101364.81;5071622;28;20135;-67
2022/10/02 00:06:50;;;;;;;15.70;6.03;;;;;;;12.57;100.00;101371.00;5072485;28;20052;-67
2022/10/02 00:09:26;;;;;;;22.73;7.32;;;;;;;12.59;100.00;101365.44;5072490;28;20036;-68
2022/10/02 00:11:57;;;;;;;19.70;8.50;;;;;;;12.60;100.00;101367.94;5072606;28;20066;-67
2022/10/02 00:14:25;;;;;;;21.55;8.45;;;;;;;12.61;100.00;101366.09;5072508;28;20032;-67
2022/10/02 00:16:54;;;;;;;18.95;7.50;;;;;;;12.61;100.00;101368.78;5071189;28;20885;-67
2022/10/02 00:19:20;;;;;;;17.10;7.32;;;;;;;12.60;100.00;101359.91;5072409;28;20116;-67
2022/10/02 00:22:03;;;;;;;13.65;6.65;;;;;;;12.59;100.00;101363.59;5072291;28;20024;-68
2022/10/02 00:24:42;;;;;;;18.05;7.50;;;;;;;12.53;100.00;101359.06;5072262;28;20024;-67
2022/10/02 00:27:28;;;;;;;21.63;9.20;;;;;;;12.55;100.00;101365.03;5072094;28;20115;-67
2022/10/02 00:29:57;;;;;;;25.58;9.23;;;;;;;12.50;100.00;101362.13;5071799;28;20078;-67
2022/10/02 00:32:40;;;;;;;17.85;7.88;;;;;;;12.45;100.00;101365.38;5072174;28;20125;-67
2022/10/02 00:35:21;;;;;;;15.95;7.22;;;;;;;12.41;100.00;101363.28;5072050;28;20033;-67
2022/10/02 00:37:52;;;;;;;14.10;7.30;;;;;;;12.37;100.00;101376.22;5072158;28;20020;-67
2022/10/02 00:41:34;;;;;;;18.10;7.15;;;;;;;12.36;100.00;101373.75;5072136;28;20034;-67
2022/10/02 00:44:27;;;;;;;22.40;9.03;;;;;;;12.30;100.00;101369.19;4970863;28;20509;-67
2022/10/02 00:47:16;;;;;;;17.58;5.93;;;;;;;12.26;100.00;101374.94;4970765;28;20355;-67
2022/10/02 00:49:54;;;;;;;14.10;4.78;;;;;;;12.25;100.00;101369.75;5060239;28;20449;-67
2022/10/02 00:52:25;;;;;;;17.48;7.35;;;;;;;12.24;100.00;101373.47;5071003;28;20029;-67
2022/10/02 00:55:10;;;;;;;15.60;5.57;;;;;;;12.23;100.00;101371.81;5071698;28;20028;-67
2022/10/02 00:57:35;;;;;;;14.35;5.13;;;;;;;12.21;100.00;101374.69;5071619;28;20135;-67
2022/10/02 01:00:11;;;;;;;13.83;4.67;;;;;;;12.12;100.00;101359.78;5071624;28;20033;-67
2022/10/02 01:02:52;;;;;;;18.77;5.38;;;;;;;12.17;100.00;101367.25;5071669;28;20275;-67
2022/10/02 01:05:19;;;;;;;;;;;;;;;12.14;100.00;101362.28;5071960;28;20041;-66
2022/10/02 01:07:48;;;;;;;14.75;4.80;;;;;;;12.08;100.00;101363.88;5071347;28;19920;-67
2022/10/02 01:10:14;;;;;;;14.88;3.90;;;;;;;12.05;100.00;101370.44;5071480;28;20640;-67
2022/10/02 01:12:39;;;;;;;18.20;4.70;;;;;;;11.99;100.00;101359.69;5071436;28;20028;-67
2022/10/02 01:15:19;;;;;;;12.30;3.03;;;;;;;12.00;100.00;101361.38;5071413;28;20387;-67
2022/10/02 01:17:51;;;;;;;16.15;3.60;;;;;;;12.00;100.00;101361.38;5071293;28;20024;-67
2022/10/02 01:20:22;;;;;;;;;;;;;;;12.02;100.00;101359.31;5071859;28;20165;-67
2022/10/02 01:22:52;;;;;;;17.65;4.18;;;;;;;12.04;100.00;101351.91;5071214;28;19912;-67
2022/10/02 01:25:17;;;;;;;19.58;4.72;;;;;;;12.05;100.00;101357.09;5071251;28;20035;-67
2022/10/02 01:27:44;;;;;;;14.35;3.80;;;;;;;12.08;100.00;101353.19;5070961;28;20369;-67
2022/10/02 01:30:13;;;;;;;22.70;3.65;;;;;;;12.12;100.00;101356.31;5071016;28;20480;-67
2022/10/02 01:32:42;;;;;;;15.02;3.45;;;;;;;12.15;100.00;101361.25;5070766;28;20032;-67
2022/10/02 01:35:09;;;;;;;14.65;4.15;;;;;;;12.19;100.00;101354.50;5070837;28;20459;-63
2022/10/02 01:37:39;;;;;;;18.02;6.80;;;;;;;12.21;100.00;101355.16;5070646;28;20047;-64
2022/10/02 01:40:09;;;;;;;21.03;6.20;;;;;;;12.24;100.00;101360.09;5070720;28;20028;-63
2022/10/02 01:42:36;;;;;;;20.67;6.50;;;;;;;12.27;100.00;101365.88;5070844;28;20506;-64
2022/10/02 01:45:04;;;;;;;15.35;4.47;;;;;;;12.31;100.00;101365.47;5070673;28;20021;-63
2022/10/02 01:47:43;;;;;;;18.13;3.80;;;;;;;12.34;100.00;101367.75;5070636;28;20036;-63
2022/10/02 01:50:23;;;;;;;14.05;4.30;;;;;;;12.37;100.00;101370.88;5070704;28;20047;-63
2022/10/02 01:53:15;;;;;;;24.55;4.50;;;;;;;12.41;100.00;101368.63;5070668;28;20020;-64
2022/10/02 01:56:00;;;;;;;19.33;4.65;;;;;;;12.44;100.00;101366.41;5070436;28;20060;-63
2022/10/02 01:59:03;;;;;;;17.90;4.03;;;;;;;12.44;100.00;101360.22;5070593;28;20455;-63
2022/10/02 02:01:39;;;;;;;29.52;5.65;;;;;;;12.45;100.00;101362.72;5070422;28;20020;-63
2022/10/02 02:04:11;;;;;;;23.77;5.32;;;;;;;12.47;100.00;101360.66;5070337;28;20060;-64
2022/10/02 02:06:54;;;;;;;13.40;3.22;;;;;;;12.48;100.00;101359.63;5070368;28;20049;-63
2022/10/02 02:09:37;;;;;;;18.73;5.65;;;;;;;12.48;100.00;101366.84;5070168;28;20067;-63
2022/10/02 02:12:23;;;;;;;21.65;4.40;;;;;;;12.50;100.00;101362.94;5070202;28;20032;-63
2022/10/02 02:15:02;;;;;;;26.23;3.95;;;;;;;12.54;100.00;101371.38;5070098;28;20108;-63
2022/10/02 02:17:39;;;;;;;19.73;4.35;;;;;;;12.58;100.00;101374.53;5069900;28;20038;-63
2022/10/02 02:20:12;;;;;;;13.77;4.30;;;;;;;12.60;100.00;101377.81;5070063;28;20541;-63
2022/10/02 02:22:44;;;;;;;17.75;4.05;;;;;;;12.61;100.00;101374.13;5069818;28;20578;-63
2022/10/02 02:25:18;;;;;;;18.35;4.10;;;;;;;12.63;100.00;101386.28;5069889;28;20025;-64
2022/10/02 02:27:49;;;;;;;20.08;5.00;;;;;;;12.64;100.00;101377.22;5069891;28;20579;-64
2022/10/02 02:30:16;;;;;;;18.70;5.00;;;;;;;12.68;100.00;101381.16;5069986;28;20040;-63
2022/10/02 02:32:51;;;;;;;19.95;6.13;;;;;;;12.70;100.00;101367.56;5069802;28;20475;-63
2022/10/02 02:35:26;;;;;;;19.90;4.43;;;;;;;12.74;100.00;101381.41;5069904;28;20020;-64
2022/10/02 02:38:00;;;;;;;18.58;5.53;;;;;;;12.77;100.00;101383.69;5069636;28;20020;-63
2022/10/02 02:40:30;;;;;;;15.85;4.13;;;;;;;12.81;100.00;101384.91;5069767;28;20121;-63
2022/10/02 02:43:33;;;;;;;18.05;4.43;;;;;;;12.83;100.00;101382.88;5069668;28;20107;-63
2022/10/02 02:46:05;;;;;;;16.73;3.47;;;;;;;12.86;100.00;101375.28;5069253;28;20032;-63
2022/10/02 02:48:53;;;;;;;17.40;4.65;;;;;;;12.87;100.00;101379.59;5069470;28;20169;-63
2022/10/02 02:51:46;;;;;;;24.67;5.43;;;;;;;12.89;100.00;101379.38;5069190;28;20032;-63
2022/10/02 02:54:24;;;;;;;18.77;5.00;;;;;;;12.85;100.00;101378.16;5067493;28;20157;-63
2022/10/02 02:56:51;;;;;;;15.68;4.28;;;;;;;12.89;100.00;101387.41;5069303;28;20085;-63
2022/10/02 02:59:19;;;;;;;21.52;4.88;;;;;;;12.83;100.00;101374.84;5069371;28;20059;-63
2022/10/02 03:01:45;;;;;;;20.63;4.03;;;;;;;12.89;100.00;101390.94;5069352;28;20077;-63
2022/10/02 03:04:12;;;;;;;21.10;3.72;;;;;;;12.90;100.00;101389.09;5069442;28;20028;-63
2022/10/02 03:06:41;;;;;;;21.60;5.22;;;;;;;12.93;100.00;101383.34;5069182;28;20063;-64
2022/10/02 03:09:16;;;;;;;16.30;3.40;;;;;;;12.87;100.00;101362.72;5067943;28;20404;-63
2022/10/02 03:12:05;;;;;;;23.10;3.92;;;;;;;12.90;100.00;101376.53;5069461;28;20115;-63
2022/10/02 03:14:50;;;;;;;16.80;4.55;;;;;;;12.91;100.00;101363.97;5057519;28;20055;-63
2022/10/02 03:17:27;;;;;;;17.40;4.07;;;;;;;12.89;100.00;101374.03;5069035;28;20043;-64
2022/10/02 03:20:05;;;;;;;17.88;4.35;;;;;;;12.87;100.00;101366.22;5069260;28;20597;-66
2022/10/02 03:22:40;;;;;;;17.33;4.82;;;;;;;12.86;100.00;101379.78;5069280;28;20085;-66
2022/10/02 03:25:33;;;;;;;15.90;4.25;;;;;;;12.84;100.00;101373.84;5069086;28;20112;-66
2022/10/02 03:28:10;;;;;;;10.50;3.85;;;;;;;12.81;100.00;101377.72;5065992;28;20037;-66
2022/10/02 03:30:39;;;;;;;12.95;3.00;;;;;;;12.79;100.00;101385.13;5069219;28;20024;-66
2022/10/02 03:33:06;;;;;;;6.85;2.63;;;;;;;12.79;100.00;101393.16;5069129;28;20028;-66
2022/10/02 03:35:32;;;;;;;11.18;3.03;;;;;;;12.78;100.00;101385.31;5068898;28;20056;-66
2022/10/02 03:38:06;;;;;;;16.08;3.42;;;;;;;12.78;100.00;101379.97;5069169;28;20078;-66
2022/10/02 03:40:31;;;;;;;11.40;3.80;;;;;;;12.75;100.00;101383.84;5068733;28;20024;-66
2022/10/02 03:42:57;;;;;;;12.15;4.05;;;;;;;12.82;100.00;101395.44;5069257;28;20494;-67
2022/10/02 03:45:26;;;;;;;14.00;4.32;;;;;;;12.83;100.00;101391.72;5068946;28;20098;-67
2022/10/02 03:47:52;;;;;;;13.50;2.97;;;;;;;12.83;100.00;101383.69;5068732;28;20039;-67
2022/10/02 03:50:17;;;;;;;8.50;3.08;;;;;;;12.83;100.00;101391.72;5069195;28;20061;-66
2022/10/02 03:52:43;;;;;;;9.10;2.70;;;;;;;12.76;100.00;101385.53;5068937;28;20039;-66
2022/10/02 03:55:31;;;;;;;8.18;2.95;;;;;;;12.81;100.00;101390.28;5068998;28;20039;-66
2022/10/02 03:57:58;;;;;;;9.15;3.00;;;;;;;12.80;100.00;101391.31;5068895;28;20017;-66
2022/10/02 04:00:34;;;;;;;10.43;3.00;;;;;;;12.79;100.00;101397.69;5068748;28;20044;-66
2022/10/02 04:03:10;;;;;;;7.55;2.65;;;;;;;12.75;100.00;101394.56;5068727;28;20039;-67
2022/10/02 04:05:43;;;;;;;12.45;4.03;;;;;;;12.74;100.00;101394.78;5068884;28;20043;-67
2022/10/02 04:08:22;;;;;;;13.05;2.88;;;;;;;12.72;100.00;101398.47;5068615;28;20060;-67
2022/10/02 04:10:59;;;;;;;10.20;3.38;;;;;;;12.69;100.00;101387.34;5068735;28;20364;-66
2022/10/02 04:13:43;;;;;;;11.15;4.13;;;;;;;12.69;100.00;101395.38;5068791;28;20035;-66
2022/10/02 04:16:17;;;;;;;11.02;3.90;;;;;;;12.67;100.00;101392.06;5068696;28;20384;-66
2022/10/02 04:19:15;;;;;;;14.95;5.32;;;;;;;12.67;100.00;101392.88;5068718;28;20028;-67
2022/10/02 04:21:40;;;;;;;8.23;3.10;;;;;;;12.65;100.00;101391.41;5052798;28;20052;-67
2022/10/02 04:24:17;;;;;;;10.30;2.83;;;;;;;12.62;100.00;101383.78;5068652;28;20029;-66
2022/10/02 04:27:01;;;;;;;9.68;3.38;;;;;;;12.63;100.00;101386.28;5069704;28;20033;-66
2022/10/02 04:29:33;;;;;;;10.25;3.15;;;;;;;12.60;100.00;101375.97;5072146;28;20105;-66
2022/10/02 04:32:09;;;;;;;;;;;;;;;12.61;100.00;101388.31;5072689;28;20028;-66
2022/10/02 04:34:34;;;;;;;6.82;2.08;;;;;;;12.59;100.00;101386.88;5072252;28;19909;-67
2022/10/02 04:37:18;;;;;;;9.65;3.30;;;;;;;12.54;100.00;101383.94;5072233;28;20040;-67
2022/10/02 04:40:10;;;;;;;11.85;3.30;;;;;;;12.47;100.00;101382.06;5072085;28;20062;-67
2022/10/02 04:42:41;;;;;;;11.25;2.78;;;;;;;12.45;100.00;101389.47;5068611;28;20036;-67
2022/10/02 04:45:25;;;;;;;9.10;2.85;;;;;;;12.40;100.00;101394.56;5071983;28;20081;-67
2022/10/02 04:48:26;;;;;;;7.75;3.08;;;;;;;12.39;100.00;101413.47;5071665;28;20395;-67
2022/10/02 04:51:14;;;;;;;8.50;3.80;;;;;;;12.37;100.00;101426.25;5071870;28;20107;-67
2022/10/02 04:53:53;;;;;;;8.50;3.25;;;;;;;12.37;100.00;101431.59;5071860;28;20116;-67
2022/10/02 04:56:37;;;;;;;14.75;5.10;;;;;;;12.37;100.00;101421.72;5071677;28;20024;-67
2022/10/02 04:59:39;;;;;;;9.82;3.53;;;;;;;12.38;100.00;101430.56;5071934;28;20023;-67
2022/10/02 05:02:19;;;;;;;15.70;5.80;;;;;;;12.37;100.00;101437.75;5071725;28;20031;-67
2022/10/02 05:05:01;;;;;;;11.57;5.13;;;;;;;12.38;100.00;101433.22;5071614;28;20032;-67
2022/10/02 05:07:56;;;;;;;12.63;4.22;;;;;;;12.36;100.00;101433.41;5071512;28;20048;-67
2022/10/02 05:11:06;;;;;;;10.57;4.43;;;;;;;12.35;100.00;101422.94;5071578;28;20043;-67
2022/10/02 05:13:31;;;;;;;16.40;4.78;;;;;;;12.31;100.00;101418.97;5048778;28;20044;-67
2022/10/02 05:16:00;;;;;;;13.20;4.50;;;;;;;12.32;100.00;101428.66;5048968;28;20043;-67
2022/10/02 05:19:03;;;;;;;10.93;5.18;;;;;;;12.30;100.00;101430.69;5060418;28;20789;-67
2022/10/02 05:21:48;;;;;;;19.13;5.85;;;;;;;12.30;100.00;101430.69;5061981;28;20040;-67
2022/10/02 05:24:29;;;;;;;16.52;5.72;;;;;;;12.31;100.00;101429.66;5071217;28;20486;-67
2022/10/02 05:26:57;;;;;;;14.60;6.03;;;;;;;12.32;100.00;101439.38;5071104;28;20020;-67
2022/10/02 05:29:39;;;;;;;23.23;6.97;;;;;;;12.34;100.00;101437.31;5069905;28;20032;-67
2022/10/02 05:32:39;;;;;;;17.85;7.03;;;;;;;12.36;100.00;101441.44;5070857;28;20028;-66
2022/10/02 05:35:23;;;;;;;15.13;6.60;;;;;;;12.39;100.00;101446.44;5070766;28;20036;-66
2022/10/02 05:38:02;;;;;;;23.58;7.85;;;;;;;12.43;100.00;101446.84;5070553;28;20031;-68
2022/10/02 05:40:35;;;;;;;19.42;7.00;;;;;;;12.39;100.00;101441.06;5070833;28;20115;-66
2022/10/02 05:43:14;;;;;;;15.27;6.50;;;;;;;12.43;100.00;101449.53;5070909;28;20032;-66
2022/10/02 05:45:45;;;;;;;13.50;6.25;;;;;;;12.42;100.00;101450.56;5070791;28;20419;-66
2022/10/02 05:48:15;;;;;;;22.10;9.23;;;;;;;12.42;100.00;101448.72;5070675;28;20119;-66
2022/10/02 05:50:45;;;;;;;23.70;9.73;;;;;;;12.44;100.00;101453.84;5070638;28;20044;-66
2022/10/02 05:53:29;;;;;;;18.60;8.20;;;;;;;12.46;100.00;101457.16;5070623;28;20028;-66
2022/10/02 05:56:01;;;;;;;18.35;9.25;;;;;;;12.46;100.00;101457.97;5070642;28;20016;-63
2022/10/02 05:58:28;;;;;;;;;;;;;;;12.48;100.00;101465.81;5071069;28;20024;-63
2022/10/02 06:00:57;;;;;;;24.92;9.88;;;;;;;12.53;100.00;101470.59;5070555;28;20375;-63
2022/10/02 06:03:38;;;;;;;27.67;9.32;;;;;;;12.57;100.00;101478.03;5070328;28;20033;-63
2022/10/02 06:06:33;;;;;;;23.02;8.98;;;;;;;12.61;100.00;101467.78;5070050;28;20078;-63
2022/10/02 06:09:21;;;;;;;25.27;8.77;;;;;;;12.65;100.00;101463.69;5069704;28;20101;-63
2022/10/02 06:11:56;;;;;;;25.67;10.65;;;;;;;12.71;100.00;101463.72;5070206;28;20028;-63
2022/10/02 06:14:45;;;;;;;24.58;8.70;;;;;;;12.74;100.00;101465.19;5070007;28;20055;-63
2022/10/02 06:17:21;;;;;;;20.70;7.85;;;;;;;12.76;100.00;101478.38;5070363;28;20016;-63
2022/10/02 06:19:58;;;;;;;21.15;7.90;;;;;;;12.78;100.00;101481.69;5070135;28;20043;-63
2022/10/02 06:22:28;;;;;;;21.30;9.23;;;;;;;12.82;100.00;101489.13;5070001;28;20376;-62
2022/10/02 06:25:12;;;;;;;22.17;7.65;;;;;;;12.86;100.00;101494.91;5069470;28;20025;-63
2022/10/02 06:27:45;;;;;;;24.77;9.48;;;;;;;12.87;100.00;101494.72;5069894;28;20111;-63
2022/10/02 06:30:16;;;;;;;26.15;10.55;;;;;;;12.93;100.00;101495.78;5069862;28;20032;-63
2022/10/02 06:32:50;;;;;;;26.58;8.93;;;;;;;12.97;100.00;101501.56;5069675;28;20036;-63
2022/10/02 06:35:26;;;;;;;24.90;8.80;;;;;;;12.99;100.00;101494.16;5069607;28;20056;-63
2022/10/02 06:37:55;;;;;;;33.28;9.75;;;;;;;13.02;100.00;101488.41;5069701;28;20111;-63
2022/10/02 06:40:44;;;;;;;27.33;8.55;;;;;;;13.05;100.00;101488.88;5069709;28;20487;-63
2022/10/02 06:43:34;;;;;;;26.23;9.27;;;;;;;13.07;100.00;101494.00;5069672;28;20058;-63
2022/10/02 06:46:34;;;;;;;23.58;8.63;;;;;;;13.11;100.00;101501.47;5069414;28;20134;-63
2022/10/02 06:49:10;;;;;;;27.00;7.85;;;;;;;13.15;100.00;101507.22;5068752;28;20031;-63
2022/10/02 06:51:51;;;;;;;22.85;7.82;;;;;;;13.16;100.00;101507.06;5069472;28;20031;-63
2022/10/02 06:54:35;;;;;;;16.67;5.53;;;;;;;13.21;100.00;101508.31;5069359;28;20031;-63
2022/10/02 06:57:06;;;;;;;25.88;7.97;;;;;;;13.26;100.00;101519.28;5069416;28;20028;-63
2022/10/02 06:59:43;;;;;;;17.50;5.60;;;;;;;13.28;100.00;101520.75;5069355;28;20170;-63
2022/10/02 07:02:35;;;;;;;22.02;7.47;;;;;;;13.33;100.00;101528.19;5069473;28;20024;-63
2022/10/02 07:05:21;;;;;;;18.27;5.80;;;;;;;13.38;100.00;101531.09;5069168;28;20129;-63
2022/10/02 07:07:59;;;;;;;22.23;6.35;;;;;;;13.40;100.00;101526.38;5069135;28;20055;-62
2022/10/02 07:10:38;;;;;;;15.02;5.15;;;;;;;13.41;100.00;101529.88;5067479;28;20068;-63
2022/10/02 07:13:12;;;;;;;17.58;4.50;;;;;;;13.44;100.00;101535.69;5069311;28;20029;-63
2022/10/02 07:16:07;;;;;;;15.45;6.55;;;;;;;13.46;100.00;101528.25;5069158;28;20127;-63
2022/10/02 07:19:00;;;;;;;18.08;6.57;;;;;;;13.49;100.00;101535.06;5068988;28;20020;-63
2022/10/02 07:21:43;;;;;;;18.52;4.60;;;;;;;13.49;100.00;101532.38;5069148;28;20070;-64
2022/10/02 07:24:24;;;;;;;17.40;5.13;;;;;;;13.50;100.00;101542.09;5069017;28;20510;-63
2022/10/02 07:27:09;;;;;;;14.60;5.65;;;;;;;13.54;100.00;101537.97;5068723;28;20025;-63
2022/10/02 07:29:53;;;;;;;22.42;5.97;;;;;;;13.55;100.00;101545.81;5069093;28;20036;-63
2022/10/02 07:32:32;;;;;;;19.70;5.55;;;;;;;13.59;100.00;101543.56;5069082;28;20831;-63
2022/10/02 07:35:26;;;;;;;21.90;7.03;;;;;;;13.62;100.00;101539.66;5068889;28;20051;-63
2022/10/02 07:38:41;;;;;;;17.33;6.22;;;;;;;13.65;100.00;101536.56;5068946;28;20045;-63
2022/10/02 07:41:40;;;;;;;16.10;6.28;;;;;;;13.70;100.00;101545.69;5068693;28;20097;-65
2022/10/02 07:44:23;;;;;;;17.65;6.57;;;;;;;13.68;100.00;101544.25;5068910;28;20111;-63
2022/10/02 07:47:12;;;;;;;14.63;7.63;;;;;;;13.76;100.00;101557.47;5068890;28;20064;-63
2022/10/02 07:50:16;;;;;;;16.25;7.50;;;;;;;13.84;100.00;101551.09;5067529;28;20024;-63
2022/10/02 07:52:44;;;;;;;16.77;7.82;;;;;;;13.91;100.00;101552.78;5068822;28;20063;-63
2022/10/02 07:55:24;;;;;;;15.85;6.85;;;;;;;13.99;100.00;101557.09;5068868;28;20388;-63
2022/10/02 07:58:02;;;;;;;19.88;7.30;;;;;;;14.10;100.00;101553.84;5068836;28;20103;-63
2022/10/02 08:00:35;;;;;;;16.13;7.35;;;;;;;14.19;100.00;101558.00;5069529;28;20032;-63
2022/10/02 08:03:34;;;;;;;15.43;7.28;;;;;;;14.31;100.00;101560.09;5072387;28;20020;-63
2022/10/02 08:06:00;;;;;;;19.63;7.63;;;;;;;14.37;100.00;101562.78;5072036;28;20383;-63
2022/10/02 08:08:43;;;;;;;15.95;6.82;;;;;;;14.44;100.00;101566.31;5072275;28;20052;-63
2022/10/02 08:11:15;;;;;;;28.60;8.90;;;;;;;14.46;100.00;101572.31;5072475;28;20822;-63
2022/10/02 08:14:01;;;;;;;19.55;9.98;;;;;;;14.46;100.00;101576.81;5072126;28;20146;-63
2022/10/02 08:16:35;;;;;;;22.00;8.95;;;;;;;14.46;100.00;101582.19;5071338;28;20036;-63
2022/10/02 08:19:12;;;;;;;18.63;9.20;;;;;;;14.43;100.00;101588.78;5070885;28;20020;-63
2022/10/02 08:21:45;;;;;;;18.27;9.45;;;;;;;14.46;100.00;101593.78;5071402;28;20471;-63
2022/10/02 08:24:19;;;;;;;16.88;7.75;;;;;;;14.47;100.00;101597.28;5071476;28;20035;-63
2022/10/02 08:26:45;;;;;;;20.70;7.85;;;;;;;14.47;100.00;101602.66;5068354;28;20035;-65
2022/10/02 08:29:41;;;;;;;20.30;8.13;;;;;;;14.52;100.00;101610.09;5067027;28;20020;-64
2022/10/02 08:32:10;;;;;;;18.13;8.00;;;;;;;14.55;100.00;101612.41;5071571;28;20034;-65
2022/10/02 08:34:36;;;;;;;17.92;6.75;;;;;;;14.57;100.00;101607.66;5071232;28;20036;-64
2022/10/02 08:37:13;;;;;;;14.77;6.78;;;;;;;14.63;100.00;101612.19;5071644;28;20534;-64
2022/10/02 08:40:00;;;;;;;17.60;7.25;;;;;;;14.67;100.00;101616.09;5071329;28;20592;-64
2022/10/02 08:42:57;;;;;;;17.73;7.45;;;;;;;14.71;100.00;101617.38;5071441;28;20070;-66
2022/10/02 08:45:34;;;;;;;17.70;6.55;;;;;;;14.77;100.00;101621.91;5070188;28;20150;-64
2022/10/02 08:48:24;;;;;;;19.70;7.25;;;;;;;14.79;100.00;101629.78;5071467;28;20533;-64
2022/10/02 08:51:50;;;;;;;15.52;6.85;;;;;;;14.75;100.00;101626.69;5071860;28;20032;-64
2022/10/02 08:54:45;;;;;;;20.33;7.82;;;;;;;14.81;100.00;101633.91;5048593;28;20503;-64
2022/10/02 08:57:45;;;;;;;21.23;7.00;;;;;;;14.85;100.00;101637.81;5071794;28;20062;-65
2022/10/02 09:00:30;;;;;;;16.77;5.85;;;;;;;14.87;100.00;101648.38;5071184;28;20086;-64
2022/10/02 09:03:29;;;;;;;16.77;5.97;;;;;;;14.83;100.00;101647.97;5069757;28;20021;-63
2022/10/02 09:06:09;;;;;;;15.65;7.28;;;;;;;14.81;100.00;101646.50;5066713;28;20082;-63
2022/10/02 09:08:56;;;;;;;19.98;6.75;;;;;;;14.78;100.00;101654.97;5067235;28;20039;-65
2022/10/02 09:11:43;;;;;;;16.30;6.05;;;;;;;14.78;100.00;101658.50;5067333;28;20468;-66
2022/10/02 09:14:31;;;;;;;18.35;5.45;;;;;;;14.78;100.00;101665.72;5066482;28;20024;-66
2022/10/02 09:17:29;;;;;;;16.88;5.40;;;;;;;14.74;100.00;101659.91;5066868;28;20017;-65
2022/10/02 09:20:13;;;;;;;14.48;5.22;;;;;;;14.72;100.00;101661.16;5067328;28;20032;-64
2022/10/02 09:22:46;;;;;;;11.85;4.72;;;;;;;14.75;100.00;101664.28;5071199;28;20036;-63
2022/10/02 09:25:12;;;;;;;13.02;4.10;;;;;;;14.84;100.00;101659.53;5071140;28;20445;-63
2022/10/02 09:27:58;;;;;;;15.15;5.13;;;;;;;15.02;100.00;101662.44;5070955;28;20104;-64
2022/10/02 09:30:30;;;;;;;9.98;3.83;;;;;;;15.20;100.00;101664.50;5071041;28;20025;-63
2022/10/02 09:33:14;;;;;;;16.67;5.95;;;;;;;15.26;100.00;101658.28;5071114;28;20032;-64
2022/10/02 09:36:00;;;;;;;10.02;3.80;;;;;;;15.28;100.00;101644.66;5070993;28;20121;-63
2022/10/02 09:38:44;;;;;;;18.38;6.05;;;;;;;15.28;100.00;101658.09;5071106;28;20496;-63
2022/10/02 09:41:48;;;;;;;15.70;5.10;;;;;;;15.26;100.00;101662.84;5070956;28;20438;-64
2022/10/02 09:44:47;;;;;;;11.07;4.05;;;;;;;15.23;100.00;101658.72;5061874;28;20032;-64
2022/10/02 09:47:34;;;;;;;11.32;3.65;;;;;;;15.27;100.00;101662.66;5070350;28;20032;-64
2022/10/02 09:50:53;;;;;;;9.77;4.22;;;;;;;15.37;100.00;101670.25;5070606;28;20052;-64
2022/10/02 09:54:08;;;;;;;13.48;5.00;;;;;;;15.42;100.00;101670.47;5028690;28;20037;-64
2022/10/02 09:57:11;;;;;;;11.25;3.45;;;;;;;15.46;100.00;101682.47;5070119;28;20057;-66
2022/10/02 10:00:01;;;;;;;16.50;5.45;;;;;;;15.49;99.63;101675.84;5070263;28;20025;-64
2022/10/02 10:02:34;;;;;;;18.17;4.72;;;;;;;15.52;99.21;101675.44;5070487;28;20020;-63
2022/10/02 10:05:14;;;;;;;8.82;2.97;;;;;;;15.62;100.00;101691.16;5070243;28;20032;-64
2022/10/02 10:07:40;;;;;;;10.65;2.75;;;;;;;15.74;99.09;101690.28;5069973;28;20056;-64
2022/10/02 10:10:20;;;;;;;11.57;4.60;;;;;;;15.86;95.18;101687.78;5070112;28;20086;-64
2022/10/02 10:13:01;;;;;;;14.15;4.03;;;;;;;15.97;94.74;101680.94;5070156;28;20100;-64
2022/10/02 10:16:01;;;;;;;12.18;3.47;;;;;;;16.07;96.91;101680.50;5070082;28;20032;-64
2022/10/02 10:18:50;;;;;;;13.18;3.50;;;;;;;16.11;96.13;101687.94;5070150;28;20364;-64
2022/10/02 10:21:32;;;;;;;7.97;2.35;;;;;;;16.16;94.48;101690.78;5070183;28;20032;-64
2022/10/02 10:24:34;;;;;;;11.32;3.10;;;;;;;16.19;93.81;101698.47;5069138;28;20066;-64
2022/10/02 10:27:18;;;;;;;9.48;3.08;;;;;;;16.14;91.98;101700.97;5069932;28;20043;-64
2022/10/02 10:29:46;;;;;;;14.63;3.25;;;;;;;16.07;92.20;101700.16;5069763;28;20033;-64
2022/10/02 10:32:14;;;;;;;14.73;4.75;;;;;;;15.97;91.30;101707.84;5069784;28;20063;-64
2022/10/02 10:35:06;;;;;;;9.80;4.43;;;;;;;16.06;92.48;101711.13;5069749;28;20028;-64
2022/10/02 10:40:52;;;;;;;13.98;5.00;;;;;;;16.00;92.77;101718.19;5069632;28;20502;-63
2022/10/02 10:43:42;;;;;;;14.25;3.38;;;;;;;15.85;90.18;101721.13;5069594;28;20025;-63
2022/10/02 10:46:53;;;;;;;5.10;2.25;;;;;;;15.82;91.11;101726.09;5069233;28;20032;-64
2022/10/02 10:49:31;;;;;;;16.17;3.22;;;;;;;15.84;90.79;101730.22;5069657;28;20640;-64
2022/10/02 10:52:38;;;;;;;13.30;3.38;;;;;;;15.95;90.92;101723.38;5068259;28;20043;-64
2022/10/02 10:55:17;;;;;;;11.07;3.50;;;;;;;15.96;86.18;101733.94;5069344;28;20025;-63
2022/10/02 10:58:13;;;;;;;10.27;3.58;;;;;;;15.89;88.28;101741.19;5069587;28;20418;-63
2022/10/02 11:00:50;;;;;;;7.10;3.38;;;;;;;15.89;86.99;101722.34;5069434;28;20048;-64
2022/10/02 11:03:28;;;;;;;10.30;2.85;;;;;;;15.91;86.90;101731.03;5069360;28;20416;-63
2022/10/02 11:06:14;;;;;;;13.55;3.25;;;;;;;16.03;86.27;101727.69;5069315;28;20127;-64
2022/10/02 11:09:03;;;;;;;11.75;3.15;;;;;;;16.18;85.61;101733.66;5069228;28;20066;-64
2022/10/02 11:11:47;;;;;;;6.20;3.22;;;;;;;16.27;83.60;101737.78;5069283;28;20054;-64
2022/10/02 11:14:21;;;;;;;9.02;2.60;;;;;;;16.35;82.84;101734.84;5069169;28;20058;-64
2022/10/02 11:16:58;;;;;;;13.70;2.83;;;;;;;16.34;81.46;101730.47;5069083;28;20115;-64
2022/10/02 11:19:46;;;;;;;6.55;2.33;;;;;;;16.36;81.44;101736.47;5069304;28;20492;-64
2022/10/02 11:22:17;;;;;;;15.18;2.97;;;;;;;16.43;79.70;101739.16;5069182;28;20029;-64
2022/10/02 11:24:49;;;;;;;12.55;2.95;;;;;;;16.53;79.79;101734.16;5069271;28;20491;-64
2022/10/02 11:27:39;;;;;;;10.65;2.47;;;;;;;16.57;80.77;101737.22;5069026;28;20949;-63
2022/10/02 11:30:37;;;;;;;8.75;2.53;;;;;;;16.56;78.92;101749.88;5068876;28;20027;-63
2022/10/02 11:33:14;;;;;;;9.77;2.78;;;;;;;16.52;78.89;101745.13;5068839;28;21061;-64
2022/10/02 11:35:57;;;;;;;10.73;2.47;;;;;;;16.53;78.74;101749.47;5069826;28;20365;-64
2022/10/02 11:38:49;;;;;;;17.30;3.05;;;;;;;16.47;78.34;101753.84;5072932;28;20170;-64
2022/10/02 11:41:38;;;;;;;6.28;1.60;;;;;;;16.43;78.58;101758.00;5073231;28;20047;-64
2022/10/02 11:44:30;;;;;;;6.95;2.42;;;;;;;16.36;78.84;101749.13;5072579;28;20032;-63
2022/10/02 11:47:33;;;;;;;8.82;2.65;;;;;;;16.31;81.20;101752.44;5072637;28;20075;-64
2022/10/02 11:50:17;;;;;;;12.55;2.13;;;;;;;16.20;80.70;101756.63;5073026;28;20029;-64
2022/10/02 11:53:11;;;;;;;8.73;2.40;;;;;;;16.12;81.04;101756.88;5073027;28;20526;-64
2022/10/02 11:55:52;;;;;;;8.10;1.88;;;;;;;16.05;82.29;101756.03;5072807;28;20032;-64
2022/10/02 11:58:26;;;;;;;9.63;2.67;;;;;;;16.03;82.76;101760.81;5072725;28;20024;-64
2022/10/02 12:01:20;;;;;;;15.50;2.85;;;;;;;16.09;83.55;101756.47;5072722;28;20032;-64
2022/10/02 12:04:11;;;;;;;7.35;2.35;;;;;;;16.16;83.46;101768.03;5067629;28;20024;-69
2022/10/02 12:06:48;;;;;;;13.30;3.10;;;;;;;16.18;83.50;101766.78;5067966;28;20056;-67
2022/10/02 12:09:34;;;;;;;9.95;2.35;;;;;;;16.19;83.83;101759.53;5068407;28;20364;-65
2022/10/02 12:12:37;;;;;;;6.35;2.17;;;;;;;16.27;83.95;101764.69;5069995;28;20386;-65
2022/10/02 12:15:15;;;;;;;9.65;2.22;;;;;;;16.36;83.94;101760.72;5072095;28;20032;-65
2022/10/02 12:18:17;;;;;;;9.63;2.72;;;;;;;16.44;82.86;101770.41;5072395;28;20086;-65